sensor_id;sensor_type;location;lat;lon;timestamp;P1;durP1;ratioP1;P2;durP2;ratioP2
9972;SDS011;5027;53.560;10.062;2024-01-15T00:02:02;8.23;;;2.20;;
9972;SDS011;5027;53.560;10.062;2024-01-15T00:04:29;10.47;;;2.33;;
9972;SDS011;5027;53.560;10.062;2024-01-15T00:06:56;9.17;;;2.43;;
9972;SDS011;5027;53.560;10.062;2024-01-15T00:09:23;10.13;;;2.23;;
9972;SDS011;5027;53.560;10.062;2024-01-15T00:11:50;8.27;;;2.33;;
9972;SDS011;5027;53.560;10.062;2024-01-15T00:14:16;10.70;;;2.93;;
9972;SDS011;5027;53.560;10.062;2024-01-15T00:16:46;11.80;;;2.77;;
9972;SDS011;5027;53.560;10.062;2024-01-15T00:19:15;7.80;;;2.37;;
9972;SDS011;5027;53.560;10.062;2024-01-15T00:21:42;7.03;;;2.47;;
9972;SDS011;5027;53.560;10.062;2024-01-15T00:24:09;10.23;;;2.50;;
9972;SDS011;5027;53.560;10.062;2024-01-15T00:26:36;7.07;;;2.53;;
9972;SDS011;5027;53.560;10.062;2024-01-15T00:29:03;8.00;;;2.47;;
9972;SDS011;5027;53.560;10.062;2024-01-15T00:31:30;10.00;;;3.00;;
9972;SDS011;5027;53.560;10.062;2024-01-15T00:33:56;12.63;;;2.90;;
9972;SDS011;5027;53.560;10.062;2024-01-15T00:36:26;9.53;;;2.60;;
9972;SDS011;5027;53.560;10.062;2024-01-15T00:38:53;8.40;;;2.80;;
9972;SDS011;5027;53.560;10.062;2024-01-15T00:41:20;9.50;;;2.77;;
9972;SDS011;5027;53.560;10.062;2024-01-15T00:43:47;8.27;;;2.60;;
9972;SDS011;5027;53.560;10.062;2024-01-15T00:46:17;8.23;;;2.63;;
9972;SDS011;5027;53.560;10.062;2024-01-15T00:48:43;9.27;;;2.90;;
9972;SDS011;5027;53.560;10.062;2024-01-15T00:51:10;13.00;;;3.40;;
9972;SDS011;5027;53.560;10.062;2024-01-15T00:53:38;11.77;;;2.80;;
9972;SDS011;5027;53.560;10.062;2024-01-15T00:56:06;7.97;;;2.97;;
9972;SDS011;5027;53.560;10.062;2024-01-15T00:58:32;9.27;;;2.90;;
9972;SDS011;5027;53.560;10.062;2024-01-15T01:00:59;8.83;;;2.87;;
9972;SDS011;5027;53.560;10.062;2024-01-15T01:03:26;9.40;;;2.80;;
9972;SDS011;5027;53.560;10.062;2024-01-15T01:05:53;8.80;;;3.43;;
9972;SDS011;5027;53.560;10.062;2024-01-15T01:08:19;8.10;;;2.60;;
9972;SDS011;5027;53.560;10.062;2024-01-15T01:10:46;9.70;;;2.70;;
9972;SDS011;5027;53.560;10.062;2024-01-15T01:13:13;8.13;;;2.10;;
9972;SDS011;5027;53.560;10.062;2024-01-15T01:15:39;12.53;;;3.13;;
9972;SDS011;5027;53.560;10.062;2024-01-15T01:18:06;16.07;;;2.93;;
9972;SDS011;5027;53.560;10.062;2024-01-15T01:20:34;6.83;;;2.43;;
9972;SDS011;5027;53.560;10.062;2024-01-15T01:23:00;14.80;;;3.17;;
9972;SDS011;5027;53.560;10.062;2024-01-15T01:25:27;9.37;;;2.63;;
9972;SDS011;5027;53.560;10.062;2024-01-15T01:27:54;10.30;;;3.13;;
9972;SDS011;5027;53.560;10.062;2024-01-15T01:30:20;11.90;;;2.30;;
9972;SDS011;5027;53.560;10.062;2024-01-15T01:32:47;9.00;;;2.43;;
9972;SDS011;5027;53.560;10.062;2024-01-15T01:35:14;15.23;;;3.20;;
9972;SDS011;5027;53.560;10.062;2024-01-15T01:37:41;14.20;;;3.50;;
9972;SDS011;5027;53.560;10.062;2024-01-15T01:40:08;11.33;;;3.00;;
9972;SDS011;5027;53.560;10.062;2024-01-15T01:42:35;11.13;;;3.17;;
9972;SDS011;5027;53.560;10.062;2024-01-15T01:45:01;9.60;;;2.90;;
9972;SDS011;5027;53.560;10.062;2024-01-15T01:47:28;14.33;;;3.17;;
9972;SDS011;5027;53.560;10.062;2024-01-15T01:49:55;12.83;;;3.17;;
9972;SDS011;5027;53.560;10.062;2024-01-15T01:52:22;8.83;;;2.50;;
9972;SDS011;5027;53.560;10.062;2024-01-15T01:54:49;8.97;;;2.87;;
9972;SDS011;5027;53.560;10.062;2024-01-15T01:57:18;11.83;;;3.07;;
9972;SDS011;5027;53.560;10.062;2024-01-15T01:59:45;10.87;;;2.80;;
9972;SDS011;5027;53.560;10.062;2024-01-15T02:02:13;7.60;;;2.47;;
9972;SDS011;5027;53.560;10.062;2024-01-15T02:04:40;9.80;;;2.87;;
9972;SDS011;5027;53.560;10.062;2024-01-15T02:07:06;10.50;;;2.63;;
9972;SDS011;5027;53.560;10.062;2024-01-15T02:09:33;9.93;;;2.80;;
9972;SDS011;5027;53.560;10.062;2024-01-15T02:12:00;8.43;;;2.40;;
9972;SDS011;5027;53.560;10.062;2024-01-15T02:14:27;9.17;;;2.30;;
9972;SDS011;5027;53.560;10.062;2024-01-15T02:16:54;7.13;;;2.30;;
9972;SDS011;5027;53.560;10.062;2024-01-15T02:19:21;7.53;;;2.60;;
9972;SDS011;5027;53.560;10.062;2024-01-15T02:21:48;8.13;;;2.90;;
9972;SDS011;5027;53.560;10.062;2024-01-15T02:24:15;6.03;;;2.07;;
9972;SDS011;5027;53.560;10.062;2024-01-15T02:26:42;5.47;;;2.03;;
9972;SDS011;5027;53.560;10.062;2024-01-15T02:29:09;8.03;;;2.30;;
9972;SDS011;5027;53.560;10.062;2024-01-15T02:31:36;5.77;;;1.67;;
9972;SDS011;5027;53.560;10.062;2024-01-15T02:34:04;14.77;;;7.53;;
9972;SDS011;5027;53.560;10.062;2024-01-15T02:36:31;5.70;;;2.13;;
9972;SDS011;5027;53.560;10.062;2024-01-15T02:38:58;11.00;;;2.33;;
9972;SDS011;5027;53.560;10.062;2024-01-15T02:41:24;8.63;;;2.87;;
9972;SDS011;5027;53.560;10.062;2024-01-15T02:43:51;8.00;;;2.47;;
9972;SDS011;5027;53.560;10.062;2024-01-15T02:46:18;10.57;;;2.83;;
9972;SDS011;5027;53.560;10.062;2024-01-15T02:48:45;11.07;;;2.60;;
9972;SDS011;5027;53.560;10.062;2024-01-15T02:51:11;8.17;;;2.47;;
9972;SDS011;5027;53.560;10.062;2024-01-15T02:53:38;5.50;;;1.97;;
9972;SDS011;5027;53.560;10.062;2024-01-15T02:56:06;9.03;;;2.63;;
9972;SDS011;5027;53.560;10.062;2024-01-15T02:58:33;6.30;;;2.20;;
9972;SDS011;5027;53.560;10.062;2024-01-15T03:01:00;7.53;;;2.23;;
9972;SDS011;5027;53.560;10.062;2024-01-15T03:03:27;9.83;;;2.70;;
9972;SDS011;5027;53.560;10.062;2024-01-15T03:05:54;13.53;;;2.83;;
9972;SDS011;5027;53.560;10.062;2024-01-15T03:08:21;8.07;;;2.10;;
9972;SDS011;5027;53.560;10.062;2024-01-15T03:10:49;8.20;;;2.50;;
9972;SDS011;5027;53.560;10.062;2024-01-15T03:13:15;9.00;;;2.60;;
9972;SDS011;5027;53.560;10.062;2024-01-15T03:15:43;10.53;;;2.97;;
9972;SDS011;5027;53.560;10.062;2024-01-15T03:18:10;8.77;;;2.73;;
9972;SDS011;5027;53.560;10.062;2024-01-15T03:20:37;10.43;;;2.93;;
9972;SDS011;5027;53.560;10.062;2024-01-15T03:23:03;10.83;;;3.00;;
9972;SDS011;5027;53.560;10.062;2024-01-15T03:25:30;10.27;;;2.73;;
9972;SDS011;5027;53.560;10.062;2024-01-15T03:27:57;10.47;;;2.43;;
9972;SDS011;5027;53.560;10.062;2024-01-15T03:30:23;7.63;;;2.63;;
9972;SDS011;5027;53.560;10.062;2024-01-15T03:32:50;11.50;;;2.47;;
9972;SDS011;5027;53.560;10.062;2024-01-15T03:35:17;7.90;;;2.77;;
9972;SDS011;5027;53.560;10.062;2024-01-15T03:37:44;9.87;;;2.70;;
9972;SDS011;5027;53.560;10.062;2024-01-15T03:40:10;13.03;;;3.27;;
9972;SDS011;5027;53.560;10.062;2024-01-15T03:42:38;15.43;;;3.20;;
9972;SDS011;5027;53.560;10.062;2024-01-15T03:45:04;14.90;;;3.50;;
9972;SDS011;5027;53.560;10.062;2024-01-15T03:47:31;9.60;;;2.93;;
9972;SDS011;5027;53.560;10.062;2024-01-15T03:49:58;7.87;;;2.60;;
9972;SDS011;5027;53.560;10.062;2024-01-15T03:52:25;14.30;;;3.40;;
9972;SDS011;5027;53.560;10.062;2024-01-15T03:54:51;12.40;;;2.90;;
9972;SDS011;5027;53.560;10.062;2024-01-15T03:57:18;7.90;;;2.27;;
9972;SDS011;5027;53.560;10.062;2024-01-15T03:59:45;12.40;;;3.13;;
9972;SDS011;5027;53.560;10.062;2024-01-15T04:02:13;9.67;;;3.83;;
9972;SDS011;5027;53.560;10.062;2024-01-15T04:04:41;11.73;;;3.30;;
9972;SDS011;5027;53.560;10.062;2024-01-15T04:07:09;12.03;;;2.87;;
9972;SDS011;5027;53.560;10.062;2024-01-15T04:09:36;13.10;;;3.80;;
9972;SDS011;5027;53.560;10.062;2024-01-15T04:12:03;13.83;;;3.57;;
9972;SDS011;5027;53.560;10.062;2024-01-15T04:14:30;13.67;;;3.57;;
9972;SDS011;5027;53.560;10.062;2024-01-15T04:16:56;16.17;;;3.70;;
9972;SDS011;5027;53.560;10.062;2024-01-15T04:19:23;11.87;;;3.33;;
9972;SDS011;5027;53.560;10.062;2024-01-15T04:21:50;14.07;;;3.60;;
9972;SDS011;5027;53.560;10.062;2024-01-15T04:24:17;16.00;;;3.73;;
9972;SDS011;5027;53.560;10.062;2024-01-15T04:26:44;14.40;;;3.60;;
9972;SDS011;5027;53.560;10.062;2024-01-15T04:29:11;16.70;;;3.63;;
9972;SDS011;5027;53.560;10.062;2024-01-15T04:31:38;16.97;;;5.23;;
9972;SDS011;5027;53.560;10.062;2024-01-15T04:34:05;11.43;;;3.20;;
9972;SDS011;5027;53.560;10.062;2024-01-15T04:36:32;17.10;;;3.50;;
9972;SDS011;5027;53.560;10.062;2024-01-15T04:39:05;10.80;;;3.43;;
9972;SDS011;5027;53.560;10.062;2024-01-15T04:41:32;15.50;;;3.97;;
9972;SDS011;5027;53.560;10.062;2024-01-15T04:43:59;17.70;;;4.33;;
9972;SDS011;5027;53.560;10.062;2024-01-15T04:46:27;16.53;;;4.50;;
9972;SDS011;5027;53.560;10.062;2024-01-15T04:48:54;20.67;;;4.03;;
9972;SDS011;5027;53.560;10.062;2024-01-15T04:51:21;22.83;;;4.43;;
9972;SDS011;5027;53.560;10.062;2024-01-15T04:53:48;14.43;;;4.30;;
9972;SDS011;5027;53.560;10.062;2024-01-15T04:56:14;18.03;;;4.43;;
9972;SDS011;5027;53.560;10.062;2024-01-15T04:58:41;18.93;;;4.67;;
9972;SDS011;5027;53.560;10.062;2024-01-15T05:01:08;21.00;;;5.30;;
9972;SDS011;5027;53.560;10.062;2024-01-15T05:03:35;15.93;;;4.20;;
9972;SDS011;5027;53.560;10.062;2024-01-15T05:06:02;18.77;;;4.17;;
9972;SDS011;5027;53.560;10.062;2024-01-15T05:08:30;18.37;;;3.93;;
9972;SDS011;5027;53.560;10.062;2024-01-15T05:10:56;16.53;;;4.27;;
9972;SDS011;5027;53.560;10.062;2024-01-15T05:13:23;16.07;;;4.57;;
9972;SDS011;5027;53.560;10.062;2024-01-15T05:15:50;18.97;;;4.47;;
9972;SDS011;5027;53.560;10.062;2024-01-15T05:18:16;16.30;;;3.77;;
9972;SDS011;5027;53.560;10.062;2024-01-15T05:20:44;15.97;;;4.10;;
9972;SDS011;5027;53.560;10.062;2024-01-15T05:23:11;17.70;;;4.27;;
9972;SDS011;5027;53.560;10.062;2024-01-15T05:25:37;14.07;;;3.80;;
9972;SDS011;5027;53.560;10.062;2024-01-15T05:28:04;19.73;;;4.40;;
9972;SDS011;5027;53.560;10.062;2024-01-15T05:30:32;16.80;;;3.97;;
9972;SDS011;5027;53.560;10.062;2024-01-15T05:32:58;17.67;;;3.73;;
9972;SDS011;5027;53.560;10.062;2024-01-15T05:35:27;17.27;;;4.27;;
9972;SDS011;5027;53.560;10.062;2024-01-15T05:37:53;15.57;;;4.07;;
9972;SDS011;5027;53.560;10.062;2024-01-15T05:40:20;16.43;;;4.40;;
9972;SDS011;5027;53.560;10.062;2024-01-15T05:42:47;14.67;;;4.07;;
9972;SDS011;5027;53.560;10.062;2024-01-15T05:45:13;13.53;;;3.97;;
9972;SDS011;5027;53.560;10.062;2024-01-15T05:47:41;12.43;;;3.63;;
9972;SDS011;5027;53.560;10.062;2024-01-15T05:50:08;11.63;;;4.00;;
9972;SDS011;5027;53.560;10.062;2024-01-15T05:52:35;14.70;;;4.13;;
9972;SDS011;5027;53.560;10.062;2024-01-15T05:55:02;16.20;;;4.03;;
9972;SDS011;5027;53.560;10.062;2024-01-15T05:57:29;18.47;;;4.17;;
9972;SDS011;5027;53.560;10.062;2024-01-15T05:59:56;21.90;;;4.43;;
9972;SDS011;5027;53.560;10.062;2024-01-15T06:02:25;16.43;;;4.03;;
9972;SDS011;5027;53.560;10.062;2024-01-15T06:04:52;17.27;;;3.63;;
9972;SDS011;5027;53.560;10.062;2024-01-15T06:07:19;14.70;;;3.60;;
9972;SDS011;5027;53.560;10.062;2024-01-15T06:09:46;14.40;;;3.77;;
9972;SDS011;5027;53.560;10.062;2024-01-15T06:12:12;16.33;;;4.17;;
9972;SDS011;5027;53.560;10.062;2024-01-15T06:14:39;14.80;;;3.53;;
9972;SDS011;5027;53.560;10.062;2024-01-15T06:17:07;17.00;;;4.10;;
9972;SDS011;5027;53.560;10.062;2024-01-15T06:19:34;17.63;;;4.17;;
9972;SDS011;5027;53.560;10.062;2024-01-15T06:22:01;17.70;;;4.30;;
9972;SDS011;5027;53.560;10.062;2024-01-15T06:24:28;14.00;;;3.90;;
9972;SDS011;5027;53.560;10.062;2024-01-15T06:26:54;18.53;;;4.37;;
9972;SDS011;5027;53.560;10.062;2024-01-15T06:29:21;12.03;;;3.60;;
9972;SDS011;5027;53.560;10.062;2024-01-15T06:31:51;14.77;;;4.00;;
9972;SDS011;5027;53.560;10.062;2024-01-15T06:34:18;17.63;;;4.10;;
9972;SDS011;5027;53.560;10.062;2024-01-15T06:36:45;13.37;;;4.10;;
9972;SDS011;5027;53.560;10.062;2024-01-15T06:39:11;17.03;;;4.00;;
9972;SDS011;5027;53.560;10.062;2024-01-15T06:41:38;17.37;;;4.23;;
9972;SDS011;5027;53.560;10.062;2024-01-15T06:44:10;16.23;;;4.20;;
9972;SDS011;5027;53.560;10.062;2024-01-15T06:46:42;18.30;;;4.40;;
9972;SDS011;5027;53.560;10.062;2024-01-15T06:49:10;15.77;;;4.13;;
9972;SDS011;5027;53.560;10.062;2024-01-15T06:51:37;13.00;;;4.03;;
9972;SDS011;5027;53.560;10.062;2024-01-15T06:54:04;17.53;;;4.40;;
9972;SDS011;5027;53.560;10.062;2024-01-15T06:56:31;14.43;;;3.67;;
9972;SDS011;5027;53.560;10.062;2024-01-15T06:58:58;13.23;;;3.33;;
9972;SDS011;5027;53.560;10.062;2024-01-15T07:01:25;13.87;;;3.50;;
9972;SDS011;5027;53.560;10.062;2024-01-15T07:03:52;15.40;;;4.33;;
9972;SDS011;5027;53.560;10.062;2024-01-15T07:06:18;20.70;;;4.50;;
9972;SDS011;5027;53.560;10.062;2024-01-15T07:08:45;14.70;;;3.73;;
9972;SDS011;5027;53.560;10.062;2024-01-15T07:11:12;14.17;;;3.30;;
9972;SDS011;5027;53.560;10.062;2024-01-15T07:13:39;10.70;;;3.47;;
9972;SDS011;5027;53.560;10.062;2024-01-15T07:16:06;15.87;;;3.73;;
9972;SDS011;5027;53.560;10.062;2024-01-15T07:18:33;9.53;;;3.17;;
9972;SDS011;5027;53.560;10.062;2024-01-15T07:21:00;15.00;;;4.73;;
9972;SDS011;5027;53.560;10.062;2024-01-15T07:23:27;13.57;;;3.47;;
9972;SDS011;5027;53.560;10.062;2024-01-15T07:25:56;12.50;;;4.43;;
9972;SDS011;5027;53.560;10.062;2024-01-15T07:28:23;14.47;;;4.13;;
9972;SDS011;5027;53.560;10.062;2024-01-15T07:30:50;16.80;;;4.17;;
9972;SDS011;5027;53.560;10.062;2024-01-15T07:33:17;12.17;;;3.27;;
9972;SDS011;5027;53.560;10.062;2024-01-15T07:35:44;12.83;;;3.17;;
9972;SDS011;5027;53.560;10.062;2024-01-15T07:38:10;13.27;;;3.20;;
9972;SDS011;5027;53.560;10.062;2024-01-15T07:40:38;9.23;;;3.13;;
9972;SDS011;5027;53.560;10.062;2024-01-15T07:43:05;10.47;;;2.83;;
9972;SDS011;5027;53.560;10.062;2024-01-15T07:45:31;9.17;;;3.03;;
9972;SDS011;5027;53.560;10.062;2024-01-15T07:47:58;13.43;;;3.67;;
9972;SDS011;5027;53.560;10.062;2024-01-15T07:50:25;10.90;;;3.17;;
9972;SDS011;5027;53.560;10.062;2024-01-15T07:52:52;11.53;;;3.13;;
9972;SDS011;5027;53.560;10.062;2024-01-15T07:55:19;10.20;;;3.23;;
9972;SDS011;5027;53.560;10.062;2024-01-15T07:57:46;17.20;;;3.30;;
9972;SDS011;5027;53.560;10.062;2024-01-15T08:00:24;9.10;;;2.70;;
9972;SDS011;5027;53.560;10.062;2024-01-15T08:02:51;13.67;;;3.47;;
9972;SDS011;5027;53.560;10.062;2024-01-15T08:05:19;12.10;;;2.93;;
9972;SDS011;5027;53.560;10.062;2024-01-15T08:07:47;9.47;;;2.60;;
9972;SDS011;5027;53.560;10.062;2024-01-15T08:10:14;13.93;;;3.17;;
9972;SDS011;5027;53.560;10.062;2024-01-15T08:12:40;11.07;;;2.73;;
9972;SDS011;5027;53.560;10.062;2024-01-15T08:15:07;11.80;;;2.63;;
9972;SDS011;5027;53.560;10.062;2024-01-15T08:17:34;10.83;;;2.77;;
9972;SDS011;5027;53.560;10.062;2024-01-15T08:20:01;8.83;;;3.03;;
9972;SDS011;5027;53.560;10.062;2024-01-15T08:22:28;12.87;;;3.33;;
9972;SDS011;5027;53.560;10.062;2024-01-15T08:24:57;15.83;;;3.73;;
9972;SDS011;5027;53.560;10.062;2024-01-15T08:27:24;13.80;;;3.13;;
9972;SDS011;5027;53.560;10.062;2024-01-15T08:29:50;9.10;;;3.00;;
9972;SDS011;5027;53.560;10.062;2024-01-15T08:32:17;10.07;;;2.90;;
9972;SDS011;5027;53.560;10.062;2024-01-15T08:34:44;10.80;;;2.77;;
9972;SDS011;5027;53.560;10.062;2024-01-15T08:37:13;14.70;;;3.00;;
9972;SDS011;5027;53.560;10.062;2024-01-15T08:39:39;10.57;;;2.93;;
9972;SDS011;5027;53.560;10.062;2024-01-15T08:42:06;8.37;;;3.13;;
9972;SDS011;5027;53.560;10.062;2024-01-15T08:44:33;10.30;;;2.87;;
9972;SDS011;5027;53.560;10.062;2024-01-15T08:47:00;7.80;;;2.30;;
9972;SDS011;5027;53.560;10.062;2024-01-15T08:49:27;8.97;;;2.67;;
9972;SDS011;5027;53.560;10.062;2024-01-15T08:51:53;9.47;;;2.70;;
9972;SDS011;5027;53.560;10.062;2024-01-15T08:54:20;9.60;;;2.73;;
9972;SDS011;5027;53.560;10.062;2024-01-15T08:56:47;9.57;;;2.90;;
9972;SDS011;5027;53.560;10.062;2024-01-15T08:59:14;9.67;;;2.37;;
9972;SDS011;5027;53.560;10.062;2024-01-15T09:01:41;8.93;;;2.63;;
9972;SDS011;5027;53.560;10.062;2024-01-15T09:04:07;7.80;;;2.63;;
9972;SDS011;5027;53.560;10.062;2024-01-15T09:06:34;12.00;;;2.93;;
9972;SDS011;5027;53.560;10.062;2024-01-15T09:09:01;8.17;;;2.53;;
9972;SDS011;5027;53.560;10.062;2024-01-15T09:11:28;6.80;;;2.57;;
9972;SDS011;5027;53.560;10.062;2024-01-15T09:13:55;9.63;;;2.87;;
9972;SDS011;5027;53.560;10.062;2024-01-15T09:16:22;6.33;;;2.70;;
9972;SDS011;5027;53.560;10.062;2024-01-15T09:18:49;6.90;;;2.70;;
9972;SDS011;5027;53.560;10.062;2024-01-15T09:21:16;9.00;;;3.00;;
9972;SDS011;5027;53.560;10.062;2024-01-15T09:23:43;12.03;;;2.63;;
9972;SDS011;5027;53.560;10.062;2024-01-15T09:26:10;11.50;;;2.73;;
9972;SDS011;5027;53.560;10.062;2024-01-15T09:28:36;7.20;;;2.37;;
9972;SDS011;5027;53.560;10.062;2024-01-15T09:31:03;8.43;;;2.20;;
9972;SDS011;5027;53.560;10.062;2024-01-15T09:33:30;9.40;;;3.50;;
9972;SDS011;5027;53.560;10.062;2024-01-15T09:35:57;11.23;;;2.70;;
9972;SDS011;5027;53.560;10.062;2024-01-15T09:38:23;10.93;;;3.07;;
9972;SDS011;5027;53.560;10.062;2024-01-15T09:40:51;9.87;;;2.70;;
9972;SDS011;5027;53.560;10.062;2024-01-15T09:43:18;9.07;;;2.90;;
9972;SDS011;5027;53.560;10.062;2024-01-15T09:45:46;7.23;;;2.43;;
9972;SDS011;5027;53.560;10.062;2024-01-15T09:48:12;10.50;;;2.73;;
9972;SDS011;5027;53.560;10.062;2024-01-15T09:50:39;7.97;;;2.53;;
9972;SDS011;5027;53.560;10.062;2024-01-15T09:53:06;9.13;;;2.80;;
9972;SDS011;5027;53.560;10.062;2024-01-15T09:55:33;9.63;;;3.10;;
9972;SDS011;5027;53.560;10.062;2024-01-15T09:58:00;10.87;;;2.17;;
9972;SDS011;5027;53.560;10.062;2024-01-15T10:00:28;6.63;;;2.47;;
9972;SDS011;5027;53.560;10.062;2024-01-15T10:02:57;9.70;;;2.40;;
9972;SDS011;5027;53.560;10.062;2024-01-15T10:05:27;11.10;;;2.70;;
9972;SDS011;5027;53.560;10.062;2024-01-15T10:07:54;11.10;;;2.77;;
9972;SDS011;5027;53.560;10.062;2024-01-15T10:10:23;8.57;;;2.87;;
9972;SDS011;5027;53.560;10.062;2024-01-15T10:12:50;14.73;;;4.23;;
9972;SDS011;5027;53.560;10.062;2024-01-15T10:15:23;10.57;;;3.33;;
9972;SDS011;5027;53.560;10.062;2024-01-15T10:17:50;12.37;;;3.20;;
9972;SDS011;5027;53.560;10.062;2024-01-15T10:20:17;6.20;;;2.23;;
9972;SDS011;5027;53.560;10.062;2024-01-15T10:22:44;6.03;;;1.97;;
9972;SDS011;5027;53.560;10.062;2024-01-15T10:25:13;10.60;;;2.43;;
9972;SDS011;5027;53.560;10.062;2024-01-15T10:27:40;6.40;;;2.40;;
9972;SDS011;5027;53.560;10.062;2024-01-15T10:30:08;6.73;;;2.23;;
9972;SDS011;5027;53.560;10.062;2024-01-15T10:32:36;6.87;;;2.03;;
9972;SDS011;5027;53.560;10.062;2024-01-15T10:35:03;3.40;;;1.73;;
9972;SDS011;5027;53.560;10.062;2024-01-15T10:37:32;1.90;;;1.20;;
9972;SDS011;5027;53.560;10.062;2024-01-15T10:40:02;4.53;;;2.10;;
9972;SDS011;5027;53.560;10.062;2024-01-15T10:42:31;4.83;;;1.60;;
9972;SDS011;5027;53.560;10.062;2024-01-15T10:44:58;5.33;;;1.73;;
9972;SDS011;5027;53.560;10.062;2024-01-15T10:47:26;3.97;;;1.93;;
9972;SDS011;5027;53.560;10.062;2024-01-15T10:49:53;3.97;;;1.90;;
9972;SDS011;5027;53.560;10.062;2024-01-15T10:52:20;5.83;;;1.97;;
9972;SDS011;5027;53.560;10.062;2024-01-15T10:54:48;7.90;;;2.17;;
9972;SDS011;5027;53.560;10.062;2024-01-15T10:57:15;3.90;;;1.80;;
9972;SDS011;5027;53.560;10.062;2024-01-15T10:59:43;5.90;;;2.53;;
9972;SDS011;5027;53.560;10.062;2024-01-15T11:02:09;4.57;;;1.80;;
9972;SDS011;5027;53.560;10.062;2024-01-15T11:04:38;3.07;;;1.60;;
9972;SDS011;5027;53.560;10.062;2024-01-15T11:07:06;4.63;;;1.50;;
9972;SDS011;5027;53.560;10.062;2024-01-15T11:09:34;3.50;;;1.60;;
9972;SDS011;5027;53.560;10.062;2024-01-15T11:12:09;5.90;;;1.70;;
9972;SDS011;5027;53.560;10.062;2024-01-15T11:17:10;5.83;;;1.80;;
9972;SDS011;5027;53.560;10.062;2024-01-15T11:22:08;2.77;;;1.67;;
9972;SDS011;5027;53.560;10.062;2024-01-15T11:24:36;3.80;;;1.53;;
9972;SDS011;5027;53.560;10.062;2024-01-15T11:27:07;4.83;;;2.20;;
9972;SDS011;5027;53.560;10.062;2024-01-15T11:29:35;2.53;;;1.73;;
9972;SDS011;5027;53.560;10.062;2024-01-15T11:32:08;3.70;;;1.90;;
9972;SDS011;5027;53.560;10.062;2024-01-15T11:34:52;4.63;;;2.03;;
9972;SDS011;5027;53.560;10.062;2024-01-15T11:37:21;2.73;;;1.60;;
9972;SDS011;5027;53.560;10.062;2024-01-15T11:39:53;2.63;;;1.70;;
9972;SDS011;5027;53.560;10.062;2024-01-15T11:42:21;3.43;;;1.50;;
9972;SDS011;5027;53.560;10.062;2024-01-15T11:44:49;6.40;;;2.07;;
9972;SDS011;5027;53.560;10.062;2024-01-15T11:47:16;3.33;;;2.00;;
9972;SDS011;5027;53.560;10.062;2024-01-15T11:50:05;4.17;;;2.00;;
9972;SDS011;5027;53.560;10.062;2024-01-15T11:52:34;4.30;;;1.67;;
9972;SDS011;5027;53.560;10.062;2024-01-15T11:55:07;3.17;;;1.63;;
9972;SDS011;5027;53.560;10.062;2024-01-15T11:57:52;6.50;;;2.67;;
9972;SDS011;5027;53.560;10.062;2024-01-15T12:00:22;5.83;;;1.70;;
9972;SDS011;5027;53.560;10.062;2024-01-15T12:02:50;3.90;;;1.63;;
9972;SDS011;5027;53.560;10.062;2024-01-15T12:05:18;5.33;;;1.83;;
9972;SDS011;5027;53.560;10.062;2024-01-15T12:07:48;10.17;;;2.17;;
9972;SDS011;5027;53.560;10.062;2024-01-15T12:10:17;4.97;;;1.53;;
9972;SDS011;5027;53.560;10.062;2024-01-15T12:15:31;7.00;;;2.07;;
9972;SDS011;5027;53.560;10.062;2024-01-15T12:17:59;3.20;;;1.50;;
9972;SDS011;5027;53.560;10.062;2024-01-15T12:20:29;3.40;;;1.37;;
9972;SDS011;5027;53.560;10.062;2024-01-15T12:22:57;3.83;;;1.20;;
9972;SDS011;5027;53.560;10.062;2024-01-15T12:25:29;4.93;;;1.40;;
9972;SDS011;5027;53.560;10.062;2024-01-15T12:27:57;5.23;;;1.77;;
9972;SDS011;5027;53.560;10.062;2024-01-15T12:30:28;2.67;;;1.13;;
9972;SDS011;5027;53.560;10.062;2024-01-15T12:32:57;1.97;;;1.20;;
9972;SDS011;5027;53.560;10.062;2024-01-15T12:35:24;4.67;;;1.70;;
9972;SDS011;5027;53.560;10.062;2024-01-15T12:37:53;5.50;;;2.03;;
9972;SDS011;5027;53.560;10.062;2024-01-15T12:40:22;4.80;;;1.60;;
9972;SDS011;5027;53.560;10.062;2024-01-15T12:42:49;4.20;;;1.60;;
9972;SDS011;5027;53.560;10.062;2024-01-15T12:45:16;5.00;;;2.13;;
9972;SDS011;5027;53.560;10.062;2024-01-15T12:47:44;4.10;;;1.60;;
9972;SDS011;5027;53.560;10.062;2024-01-15T12:50:12;5.23;;;1.70;;
9972;SDS011;5027;53.560;10.062;2024-01-15T12:52:46;3.63;;;1.30;;
9972;SDS011;5027;53.560;10.062;2024-01-15T12:55:13;2.63;;;1.20;;
9972;SDS011;5027;53.560;10.062;2024-01-15T12:57:40;3.77;;;1.33;;
9972;SDS011;5027;53.560;10.062;2024-01-15T13:00:07;2.07;;;1.37;;
9972;SDS011;5027;53.560;10.062;2024-01-15T13:02:39;3.37;;;1.60;;
9972;SDS011;5027;53.560;10.062;2024-01-15T13:05:08;1.90;;;1.17;;
9972;SDS011;5027;53.560;10.062;2024-01-15T13:07:37;2.80;;;1.50;;
9972;SDS011;5027;53.560;10.062;2024-01-15T13:10:05;3.10;;;1.43;;
9972;SDS011;5027;53.560;10.062;2024-01-15T13:12:33;1.73;;;1.20;;
9972;SDS011;5027;53.560;10.062;2024-01-15T13:15:00;3.80;;;1.40;;
9972;SDS011;5027;53.560;10.062;2024-01-15T13:17:29;2.60;;;1.50;;
9972;SDS011;5027;53.560;10.062;2024-01-15T13:19:56;6.27;;;1.53;;
9972;SDS011;5027;53.560;10.062;2024-01-15T13:22:24;3.30;;;1.40;;
9972;SDS011;5027;53.560;10.062;2024-01-15T13:24:56;1.87;;;1.50;;
9972;SDS011;5027;53.560;10.062;2024-01-15T13:27:23;5.50;;;1.40;;
9972;SDS011;5027;53.560;10.062;2024-01-15T13:29:50;2.20;;;1.33;;
9972;SDS011;5027;53.560;10.062;2024-01-15T13:32:35;4.90;;;1.60;;
9972;SDS011;5027;53.560;10.062;2024-01-15T13:35:02;5.50;;;1.50;;
9972;SDS011;5027;53.560;10.062;2024-01-15T13:37:31;2.30;;;1.30;;
9972;SDS011;5027;53.560;10.062;2024-01-15T13:39:58;3.87;;;1.80;;
9972;SDS011;5027;53.560;10.062;2024-01-15T13:42:25;4.03;;;1.63;;
9972;SDS011;5027;53.560;10.062;2024-01-15T13:44:53;5.93;;;1.60;;
9972;SDS011;5027;53.560;10.062;2024-01-15T13:47:20;5.10;;;1.90;;
9972;SDS011;5027;53.560;10.062;2024-01-15T13:49:47;4.97;;;1.60;;
9972;SDS011;5027;53.560;10.062;2024-01-15T13:52:14;4.40;;;1.50;;
9972;SDS011;5027;53.560;10.062;2024-01-15T13:54:41;2.23;;;1.60;;
9972;SDS011;5027;53.560;10.062;2024-01-15T13:57:18;6.13;;;2.00;;
9972;SDS011;5027;53.560;10.062;2024-01-15T13:59:46;10.00;;;2.33;;
9972;SDS011;5027;53.560;10.062;2024-01-15T14:02:15;4.60;;;1.60;;
9972;SDS011;5027;53.560;10.062;2024-01-15T14:04:47;4.47;;;1.50;;
9972;SDS011;5027;53.560;10.062;2024-01-15T14:07:15;3.87;;;1.80;;
9972;SDS011;5027;53.560;10.062;2024-01-15T14:09:42;2.87;;;2.20;;
9972;SDS011;5027;53.560;10.062;2024-01-15T14:12:09;5.47;;;2.60;;
9972;SDS011;5027;53.560;10.062;2024-01-15T14:14:36;7.07;;;2.03;;
9972;SDS011;5027;53.560;10.062;2024-01-15T14:17:02;4.10;;;1.73;;
9972;SDS011;5027;53.560;10.062;2024-01-15T14:19:30;5.20;;;1.70;;
9972;SDS011;5027;53.560;10.062;2024-01-15T14:21:57;4.30;;;1.93;;
9972;SDS011;5027;53.560;10.062;2024-01-15T14:24:23;4.20;;;1.57;;
9972;SDS011;5027;53.560;10.062;2024-01-15T14:26:50;3.93;;;1.60;;
9972;SDS011;5027;53.560;10.062;2024-01-15T14:29:17;3.50;;;1.67;;
9972;SDS011;5027;53.560;10.062;2024-01-15T14:31:46;2.73;;;1.37;;
9972;SDS011;5027;53.560;10.062;2024-01-15T14:34:14;4.40;;;1.43;;
9972;SDS011;5027;53.560;10.062;2024-01-15T14:36:41;4.50;;;1.57;;
9972;SDS011;5027;53.560;10.062;2024-01-15T14:39:08;4.47;;;1.80;;
9972;SDS011;5027;53.560;10.062;2024-01-15T14:41:35;4.87;;;1.70;;
9972;SDS011;5027;53.560;10.062;2024-01-15T14:44:02;2.97;;;2.00;;
9972;SDS011;5027;53.560;10.062;2024-01-15T14:46:29;4.43;;;2.23;;
9972;SDS011;5027;53.560;10.062;2024-01-15T14:48:56;3.83;;;1.80;;
9972;SDS011;5027;53.560;10.062;2024-01-15T14:51:23;7.57;;;2.27;;
9972;SDS011;5027;53.560;10.062;2024-01-15T14:53:50;3.93;;;1.63;;
9972;SDS011;5027;53.560;10.062;2024-01-15T14:56:17;4.67;;;1.73;;
9972;SDS011;5027;53.560;10.062;2024-01-15T14:58:44;4.07;;;1.80;;
9972;SDS011;5027;53.560;10.062;2024-01-15T15:01:11;5.33;;;1.70;;
9972;SDS011;5027;53.560;10.062;2024-01-15T15:03:38;4.13;;;1.60;;
9972;SDS011;5027;53.560;10.062;2024-01-15T15:06:06;3.20;;;1.93;;